Goldens Bridge, New York
Current Conditions -  °F | °C
As of 11:53 PM on Sunday 21 Dec 2014 (Local Time) from KDXR Reporting Station
Overcast Overcast  
Wind Chill: 33°   Ceiling: 1000
Heat Index: 33°   Visibility: 8mi
Dew Point: 28°   Wind: 3mph
Humidity: 82%   Direction: 50°NE
Pressure: 30.33"   Gusts: NA
Location:  41.29°N, 73.68°W
Report Text: KDXR 220453Z AUTO 05003KT 8SM OVC010 01/M02 A3033 RMK AO2 SLP276 T00061022 400111022
Loading
Personal Weather Stations






























Interactive Weather Map New forecast layout! Learn more

10-Day Weather Forecast

Advertisements
Track Severe Weather on mobile